Time,TemperatureF,DewpointF,PressureIn,WindDirection,WindDirectionDegrees,WindSpeedMPH,WindSpeedGustMPH,Humidity,HourlyPrecipIn,Conditions,Clouds,dailyrainin,SoftwareType,DateUTC
2013-09-23 00:01:00,41.0,33.4,29.35,North,0,0.0,0.0,74,0.00,,,0.00,meteohub,2013-09-23 04:01:00,
2013-09-23 00:06:00,40.8,33.3,29.35,North,0,0.0,0.0,74,0.00,,,0.00,meteohub,2013-09-23 04:06:00,
2013-09-23 00:11:00,40.8,33.3,29.35,North,0,0.0,0.0,74,0.00,,,0.00,meteohub,2013-09-23 04:11:00,
2013-09-23 00:16:00,40.6,33.1,29.35,North,0,0.0,0.0,74,0.00,,,0.00,meteohub,2013-09-23 04:16:00,
2013-09-23 00:21:00,40.5,32.5,29.35,North,0,0.0,0.0,73,0.00,,,0.00,meteohub,2013-09-23 04:21:00,
2013-09-23 00:26:00,40.3,32.4,29.35,North,0,0.0,0.0,73,0.00,,,0.00,meteohub,2013-09-23 04:26:00,
2013-09-23 00:31:00,40.3,32.4,29.35,North,0,0.0,0.0,73,0.00,,,0.00,meteohub,2013-09-23 04:31:00,
2013-09-23 00:36:00,40.1,32.2,29.35,North,0,0.0,0.0,73,0.00,,,0.00,meteohub,2013-09-23 04:36:00,
2013-09-23 00:41:00,40.1,32.2,29.35,North,0,0.0,0.0,73,0.00,,,0.00,meteohub,2013-09-23 04:41:00,
2013-09-23 00:46:00,39.7,31.8,29.36,North,0,0.0,0.0,73,0.00,,,0.00,meteohub,2013-09-23 04:46:00,
2013-09-23 00:51:00,39.7,31.8,29.36,North,0,0.0,0.0,73,0.00,,,0.00,meteohub,2013-09-23 04:51:00,
2013-09-23 00:56:00,39.6,31.6,29.36,North,0,0.0,0.0,73,0.00,,,0.00,meteohub,2013-09-23 04:56:00,
2013-09-23 01:01:00,39.4,31.5,29.36,North,0,0.0,0.0,73,0.00,,,0.00,meteohub,2013-09-23 05:01:00,
2013-09-23 01:06:00,39.4,31.5,29.36,North,0,0.0,0.0,73,0.00,,,0.00,meteohub,2013-09-23 05:06:00,
2013-09-23 01:11:00,39.2,31.3,29.36,North,0,0.0,0.0,73,0.00,,,0.00,meteohub,2013-09-23 05:11:00,
2013-09-23 01:16:00,39.2,31.3,29.36,North,0,0.0,0.0,73,0.00,,,0.00,meteohub,2013-09-23 05:16:00,
2013-09-23 01:21:00,39.0,31.1,29.36,North,0,0.0,0.0,73,0.00,,,0.00,meteohub,2013-09-23 05:21:00,
2013-09-23 01:26:00,39.0,31.1,29.36,North,0,0.0,0.0,73,0.00,,,0.00,meteohub,2013-09-23 05:26:00,
2013-09-23 01:31:00,38.8,30.9,29.36,North,0,0.0,0.0,73,0.00,,,0.00,meteohub,2013-09-23 05:31:00,
2013-09-23 01:37:00,38.7,30.4,29.36,North,0,0.0,0.0,72,0.00,,,0.00,meteohub,2013-09-23 05:37:00,
2013-09-23 01:42:00,38.7,30.4,29.36,North,0,0.0,0.0,72,0.00,,,0.00,meteohub,2013-09-23 05:42:00,
2013-09-23 01:47:00,38.7,30.4,29.36,North,0,0.0,0.0,72,0.00,,,0.00,meteohub,2013-09-23 05:47:00,
2013-09-23 01:52:00,38.5,30.2,29.36,North,0,0.0,0.0,72,0.00,,,0.00,meteohub,2013-09-23 05:52:00,
2013-09-23 01:57:00,38.3,30.0,29.36,North,0,0.0,0.0,72,0.00,,,0.00,meteohub,2013-09-23 05:57:00,
2013-09-23 02:02:00,38.3,30.0,29.37,North,0,0.0,0.0,72,0.00,,,0.00,meteohub,2013-09-23 06:02:00,
2013-09-23 02:07:00,38.3,30.0,29.37,North,0,0.0,0.0,72,0.00,,,0.00,meteohub,2013-09-23 06:07:00,
2013-09-23 02:12:00,38.3,30.0,29.37,North,0,0.0,0.0,72,0.00,,,0.00,meteohub,2013-09-23 06:12:00,
2013-09-23 02:17:00,38.3,30.0,29.37,North,0,0.0,0.0,72,0.00,,,0.00,meteohub,2013-09-23 06:17:00,
2013-09-23 02:22:00,38.3,30.0,29.37,North,0,0.0,0.0,72,0.00,,,0.00,meteohub,2013-09-23 06:22:00,
2013-09-23 02:27:00,38.3,30.0,29.37,North,0,0.0,0.0,72,0.00,,,0.00,meteohub,2013-09-23 06:27:00,
2013-09-23 02:32:00,38.5,29.8,29.37,North,0,0.0,0.0,71,0.00,,,0.00,meteohub,2013-09-23 06:32:00,
2013-09-23 02:37:00,38.5,29.8,29.37,North,0,0.0,0.0,71,0.00,,,0.00,meteohub,2013-09-23 06:37:00,
2013-09-23 02:42:00,38.7,30.0,29.37,North,0,0.0,0.0,71,0.00,,,0.00,meteohub,2013-09-23 06:42:00,
2013-09-23 02:47:00,38.7,29.7,29.37,North,0,0.0,0.0,70,0.00,,,0.00,meteohub,2013-09-23 06:47:00,
2013-09-23 02:52:00,38.7,29.7,29.37,North,0,0.0,0.0,70,0.00,,,0.00,meteohub,2013-09-23 06:52:00,
2013-09-23 02:57:00,38.5,29.5,29.37,North,0,0.0,0.0,70,0.00,,,0.00,meteohub,2013-09-23 06:57:00,
2013-09-23 03:02:00,38.5,29.5,29.37,North,0,0.0,0.0,70,0.00,,,0.00,meteohub,2013-09-23 07:02:00,
2013-09-23 03:07:00,38.3,29.3,29.37,North,0,0.0,0.0,70,0.00,,,0.00,meteohub,2013-09-23 07:07:00,
2013-09-23 03:12:00,38.3,29.3,29.37,North,0,0.0,0.0,70,0.00,,,0.00,meteohub,2013-09-23 07:12:00,
2013-09-23 03:17:00,38.3,29.3,29.37,North,0,0.0,0.0,70,0.00,,,0.00,meteohub,2013-09-23 07:17:00,
2013-09-23 03:22:00,38.3,29.3,29.38,North,0,0.0,0.0,70,0.00,,,0.00,meteohub,2013-09-23 07:22:00,
2013-09-23 03:27:00,38.3,29.3,29.38,North,0,0.0,0.0,70,0.00,,,0.00,meteohub,2013-09-23 07:27:00,
2013-09-23 03:32:00,38.3,29.3,29.38,North,0,0.0,0.0,70,0.00,,,0.00,meteohub,2013-09-23 07:32:00,
2013-09-23 03:37:00,38.5,29.1,29.38,North,0,0.0,0.0,69,0.00,,,0.00,meteohub,2013-09-23 07:37:00,
2013-09-23 03:42:00,38.7,29.3,29.38,North,0,0.0,0.0,69,0.00,,,0.00,meteohub,2013-09-23 07:42:00,
2013-09-23 03:47:00,39.0,29.3,29.38,North,0,0.0,0.0,68,0.00,,,0.00,meteohub,2013-09-23 07:47:00,
2013-09-23 03:52:00,39.2,29.1,29.38,North,0,0.0,0.0,67,0.00,,,0.00,meteohub,2013-09-23 07:52:00,
2013-09-23 03:57:00,39.4,29.3,29.38,North,0,0.0,0.0,67,0.00,,,0.00,meteohub,2013-09-23 07:57:00,
2013-09-23 04:02:00,39.2,29.1,29.37,North,0,0.0,0.0,67,0.00,,,0.00,meteohub,2013-09-23 08:02:00,
2013-09-23 04:07:00,39.2,29.1,29.37,North,0,0.0,0.0,67,0.00,,,0.00,meteohub,2013-09-23 08:07:00,
2013-09-23 04:12:00,39.2,29.1,29.37,North,0,0.0,0.0,67,0.00,,,0.00,meteohub,2013-09-23 08:12:00,
2013-09-23 04:17:00,39.0,28.6,29.37,North,0,0.0,0.0,66,0.00,,,0.00,meteohub,2013-09-23 08:17:00,
2013-09-23 04:22:00,39.0,28.6,29.37,North,0,0.0,0.0,66,0.00,,,0.00,meteohub,2013-09-23 08:22:00,
2013-09-23 04:27:00,39.0,28.6,29.37,North,0,0.0,0.0,66,0.00,,,0.00,meteohub,2013-09-23 08:27:00,
2013-09-23 04:32:00,38.8,28.4,29.37,North,0,0.0,0.0,66,0.00,,,0.00,meteohub,2013-09-23 08:32:00,
2013-09-23 04:37:00,38.5,28.4,29.37,North,0,0.0,0.0,67,0.00,,,0.00,meteohub,2013-09-23 08:37:00,
2013-09-23 04:43:00,38.3,27.9,29.39,North,0,0.0,0.0,66,0.00,,,0.00,meteohub,2013-09-23 08:43:00,
2013-09-23 04:48:00,38.1,27.9,29.39,North,0,0.0,0.0,66,0.00,,,0.00,meteohub,2013-09-23 08:48:00,
2013-09-23 04:53:00,38.1,27.9,29.39,North,0,0.0,0.0,66,0.00,,,0.00,meteohub,2013-09-23 08:53:00,
2013-09-23 04:58:00,37.9,27.7,29.39,North,0,0.0,0.0,66,0.00,,,0.00,meteohub,2013-09-23 08:58:00,
2013-09-23 05:03:00,37.8,27.5,29.39,North,0,0.0,0.0,66,0.00,,,0.00,meteohub,2013-09-23 09:03:00,
2013-09-23 05:08:00,37.6,27.3,29.39,North,0,0.0,0.0,66,0.00,,,0.00,meteohub,2013-09-23 09:08:00,
2013-09-23 05:13:00,37.4,27.1,29.39,North,0,0.0,0.0,66,0.00,,,0.00,meteohub,2013-09-23 09:13:00,
2013-09-23 05:18:00,37.0,27.1,29.39,North,0,0.0,0.0,67,0.00,,,0.00,meteohub,2013-09-23 09:18:00,
2013-09-23 05:23:00,36.9,27.0,29.39,North,0,0.0,0.0,67,0.00,,,0.00,meteohub,2013-09-23 09:23:00,
2013-09-23 05:28:00,36.5,26.6,29.39,North,0,0.0,0.0,67,0.00,,,0.00,meteohub,2013-09-23 09:28:00,
2013-09-23 05:33:00,36.5,26.6,29.39,North,0,0.0,0.0,67,0.00,,,0.00,meteohub,2013-09-23 09:33:00,
2013-09-23 05:38:00,36.5,26.2,29.39,North,0,0.0,0.0,66,0.00,,,0.00,meteohub,2013-09-23 09:38:00,
2013-09-23 05:43:00,36.5,26.2,29.39,North,0,0.0,0.0,66,0.00,,,0.00,meteohub,2013-09-23 09:43:00,
2013-09-23 05:48:00,36.5,26.2,29.39,North,0,0.0,0.0,66,0.00,,,0.00,meteohub,2013-09-23 09:48:00,
2013-09-23 05:53:00,36.5,25.9,29.39,North,0,0.0,0.0,65,0.00,,,0.00,meteohub,2013-09-23 09:53:00,
2013-09-23 05:58:00,36.3,25.7,29.39,North,0,0.0,0.0,65,0.00,,,0.00,meteohub,2013-09-23 09:58:00,
2013-09-23 06:03:00,36.3,25.7,29.40,North,0,0.0,0.0,65,0.00,,,0.00,meteohub,2013-09-23 10:03:00,
2013-09-23 06:08:00,36.1,25.5,29.40,North,0,0.0,0.0,65,0.00,,,0.00,meteohub,2013-09-23 10:08:00,
2013-09-23 06:13:00,36.3,25.7,29.40,North,0,0.0,0.0,65,0.00,,,0.00,meteohub,2013-09-23 10:13:00,
2013-09-23 06:18:00,36.5,25.9,29.40,North,0,0.0,0.0,65,0.00,,,0.00,meteohub,2013-09-23 10:18:00,
2013-09-23 06:23:00,36.3,25.7,29.40,North,0,0.0,0.0,65,0.00,,,0.00,meteohub,2013-09-23 10:23:00,
2013-09-23 06:28:00,36.1,25.5,29.40,North,0,0.0,0.0,65,0.00,,,0.00,meteohub,2013-09-23 10:28:00,
2013-09-23 06:33:00,36.0,25.3,29.40,North,0,0.0,0.0,65,0.00,,,0.00,meteohub,2013-09-23 10:33:00,
2013-09-23 06:38:00,36.1,25.5,29.40,North,0,0.0,0.0,65,0.00,,,0.00,meteohub,2013-09-23 10:38:00,
2013-09-23 06:43:00,36.7,25.7,29.40,North,0,0.0,0.0,64,0.00,,,0.00,meteohub,2013-09-23 10:43:00,
2013-09-23 06:48:00,36.9,25.5,29.40,North,0,0.0,0.0,63,0.00,,,0.00,meteohub,2013-09-23 10:48:00,
2013-09-23 06:53:00,37.0,25.7,29.40,North,0,0.0,0.0,63,0.00,,,0.00,meteohub,2013-09-23 10:53:00,
2013-09-23 06:58:00,37.0,25.7,29.40,North,0,0.0,0.0,63,0.00,,,0.00,meteohub,2013-09-23 10:58:00,
2013-09-23 07:03:00,37.2,25.3,29.40,North,0,0.0,0.0,62,0.00,,,0.00,meteohub,2013-09-23 11:03:00,
2013-09-23 07:08:00,37.2,25.3,29.40,North,0,0.0,0.0,62,0.00,,,0.00,meteohub,2013-09-23 11:08:00,
2013-09-23 07:13:00,37.2,25.3,29.40,North,0,0.0,0.0,62,0.00,,,0.00,meteohub,2013-09-23 11:13:00,
2013-09-23 07:18:00,37.2,25.3,29.40,North,0,0.0,0.0,62,0.00,,,0.00,meteohub,2013-09-23 11:18:00,
2013-09-23 07:24:00,37.2,25.3,29.41,North,0,0.0,0.0,62,0.00,,,0.00,meteohub,2013-09-23 11:24:00,
2013-09-23 07:29:00,37.4,25.5,29.41,North,0,0.0,0.0,62,0.00,,,0.00,meteohub,2013-09-23 11:29:00,
2013-09-23 07:34:00,37.6,25.7,29.41,North,0,0.0,0.0,62,0.00,,,0.00,meteohub,2013-09-23 11:34:00,
2013-09-23 07:39:00,37.6,25.7,29.41,North,0,0.0,0.0,62,0.00,,,0.00,meteohub,2013-09-23 11:39:00,
2013-09-23 07:44:00,37.6,25.7,29.42,North,0,0.0,0.0,62,0.00,,,0.00,meteohub,2013-09-23 11:44:00,
2013-09-23 07:49:00,37.6,25.7,29.42,North,0,0.0,0.0,62,0.00,,,0.00,meteohub,2013-09-23 11:49:00,
2013-09-23 07:54:00,37.6,25.3,29.42,North,0,0.0,0.0,61,0.00,,,0.00,meteohub,2013-09-23 11:54:00,
2013-09-23 07:59:00,37.6,25.3,29.42,North,0,0.0,0.0,61,0.00,,,0.00,meteohub,2013-09-23 11:59:00,
2013-09-23 08:04:00,37.6,25.3,29.43,North,0,0.0,0.0,61,0.00,,,0.00,meteohub,2013-09-23 12:04:00,
2013-09-23 08:09:00,37.6,25.3,29.43,North,0,0.0,0.0,61,0.00,,,0.00,meteohub,2013-09-23 12:09:00,
2013-09-23 08:14:00,37.6,25.3,29.43,North,0,0.0,0.0,61,0.00,,,0.00,meteohub,2013-09-23 12:14:00,
2013-09-23 08:19:00,37.8,25.5,29.43,North,0,0.0,0.0,61,0.00,,,0.00,meteohub,2013-09-23 12:19:00,
2013-09-23 08:24:00,37.9,25.7,29.42,North,0,0.0,0.0,61,0.00,,,0.00,meteohub,2013-09-23 12:24:00,
2013-09-23 08:29:00,38.1,25.9,29.42,North,0,0.0,0.0,61,0.00,,,0.00,meteohub,2013-09-23 12:29:00,
2013-09-23 08:34:00,38.7,26.1,29.42,North,0,0.0,0.0,60,0.00,,,0.00,meteohub,2013-09-23 12:34:00,
2013-09-23 08:39:00,39.2,26.4,29.42,North,0,0.0,0.0,60,0.00,,,0.00,meteohub,2013-09-23 12:39:00,
2013-09-23 08:44:00,39.9,26.8,29.42,North,0,0.0,0.0,59,0.00,,,0.00,meteohub,2013-09-23 12:44:00,
2013-09-23 08:49:00,40.5,27.3,29.42,North,0,0.0,0.0,59,0.00,,,0.00,meteohub,2013-09-23 12:49:00,
2013-09-23 08:54:00,40.8,27.7,29.42,North,0,0.0,0.0,59,0.00,,,0.00,meteohub,2013-09-23 12:54:00,
2013-09-23 08:59:00,41.2,27.9,29.42,North,0,0.0,0.0,59,0.00,,,0.00,meteohub,2013-09-23 12:59:00,
2013-09-23 09:04:00,41.5,28.2,29.43,North,0,0.0,0.0,59,0.00,,,0.00,meteohub,2013-09-23 13:04:00,
2013-09-23 09:09:00,41.7,28.4,29.43,North,0,0.0,0.0,59,0.00,,,0.00,meteohub,2013-09-23 13:09:00,
2013-09-23 09:14:00,42.3,28.6,29.43,North,0,0.0,0.0,58,0.00,,,0.00,meteohub,2013-09-23 13:14:00,
2013-09-23 09:19:00,43.0,29.7,29.43,North,0,0.0,0.0,59,0.00,,,0.00,meteohub,2013-09-23 13:19:00,
2013-09-23 09:24:00,43.3,29.5,29.44,North,0,0.0,0.0,58,0.00,,,0.00,meteohub,2013-09-23 13:24:00,
2013-09-23 09:29:00,43.5,29.7,29.44,North,0,0.0,0.0,58,0.00,,,0.00,meteohub,2013-09-23 13:29:00,
2013-09-23 09:34:00,44.2,30.4,29.44,North,0,0.0,0.0,58,0.00,,,0.00,meteohub,2013-09-23 13:34:00,
2013-09-23 09:39:00,44.6,30.4,29.44,North,0,0.0,0.0,57,0.00,,,0.00,meteohub,2013-09-23 13:39:00,
2013-09-23 09:44:00,45.5,30.7,29.43,North,0,0.0,0.0,56,0.00,,,0.00,meteohub,2013-09-23 13:44:00,
2013-09-23 09:49:00,46.6,31.6,29.43,North,0,0.0,0.0,56,0.00,,,0.00,meteohub,2013-09-23 13:49:00,
2013-09-23 09:54:00,46.9,32.0,29.43,North,0,0.0,0.0,56,0.00,,,0.00,meteohub,2013-09-23 13:54:00,
2013-09-23 09:59:00,47.3,32.4,29.43,North,0,0.0,0.0,56,0.00,,,0.00,meteohub,2013-09-23 13:59:00,
2013-09-23 10:04:00,48.4,33.4,29.43,North,0,0.0,0.0,56,0.00,,,0.00,meteohub,2013-09-23 14:04:00,
2013-09-23 10:09:00,49.1,34.2,29.43,North,0,0.0,0.0,56,0.00,,,0.00,meteohub,2013-09-23 14:09:00,
2013-09-23 10:15:00,49.8,35.2,29.43,North,0,0.0,0.0,57,0.00,,,0.00,meteohub,2013-09-23 14:15:00,
2013-09-23 10:20:00,50.4,37.4,29.43,North,0,0.0,0.0,61,0.00,,,0.00,meteohub,2013-09-23 14:20:00,
2013-09-23 10:25:00,50.7,39.4,29.45,North,0,0.0,0.0,65,0.00,,,0.00,meteohub,2013-09-23 14:25:00,
2013-09-23 10:30:00,51.3,40.3,29.45,North,0,0.0,0.0,66,0.00,,,0.00,meteohub,2013-09-23 14:30:00,
2013-09-23 10:35:00,51.4,41.2,29.45,North,0,0.0,0.0,68,0.00,,,0.00,meteohub,2013-09-23 14:35:00,
2013-09-23 10:40:00,51.6,41.4,29.45,North,0,0.0,0.0,68,0.00,,,0.00,meteohub,2013-09-23 14:40:00,
2013-09-23 10:45:00,51.6,41.7,29.44,North,0,0.0,0.0,69,0.00,,,0.00,meteohub,2013-09-23 14:45:00,
2013-09-23 10:50:00,51.8,41.9,29.44,North,0,0.0,0.0,69,0.00,,,0.00,meteohub,2013-09-23 14:50:00,
2013-09-23 10:55:00,51.8,41.9,29.44,North,0,0.0,0.0,69,0.00,,,0.00,meteohub,2013-09-23 14:55:00,
2013-09-23 11:00:00,52.2,41.9,29.44,North,0,0.0,0.0,68,0.00,,,0.00,meteohub,2013-09-23 15:00:00,
2013-09-23 11:05:00,52.2,41.9,29.43,North,0,0.0,0.0,68,0.00,,,0.00,meteohub,2013-09-23 15:05:00,
2013-09-23 11:10:00,52.5,42.3,29.43,North,0,0.0,0.0,68,0.00,,,0.00,meteohub,2013-09-23 15:10:00,
2013-09-23 11:15:00,52.7,42.4,29.43,North,0,0.0,0.0,68,0.00,,,0.00,meteohub,2013-09-23 15:15:00,
2013-09-23 11:20:00,52.9,42.6,29.43,North,0,0.0,0.0,68,0.00,,,0.00,meteohub,2013-09-23 15:20:00,
2013-09-23 11:25:00,53.1,42.8,29.45,North,0,0.0,0.0,68,0.00,,,0.00,meteohub,2013-09-23 15:25:00,
2013-09-23 11:30:00,53.2,43.0,29.45,North,0,0.0,0.0,68,0.00,,,0.00,meteohub,2013-09-23 15:30:00,
2013-09-23 11:35:00,53.2,43.0,29.45,North,0,0.0,0.0,68,0.00,,,0.00,meteohub,2013-09-23 15:35:00,
2013-09-23 11:40:00,53.4,43.2,29.45,North,0,0.0,0.0,68,0.00,,,0.00,meteohub,2013-09-23 15:40:00,
2013-09-23 11:45:00,53.8,43.5,29.44,North,0,0.0,0.0,68,0.00,,,0.00,meteohub,2013-09-23 15:45:00,
2013-09-23 11:50:00,54.0,43.7,29.44,North,0,0.0,0.0,68,0.00,,,0.00,meteohub,2013-09-23 15:50:00,
2013-09-23 11:55:00,54.1,43.3,29.44,North,0,0.0,0.0,67,0.00,,,0.00,meteohub,2013-09-23 15:55:00,
2013-09-23 12:01:00,54.3,43.5,29.44,North,0,0.0,0.0,67,0.00,,,0.00,meteohub,2013-09-23 16:01:00,
2013-09-23 12:06:00,54.3,43.5,29.44,North,0,0.0,0.0,67,0.00,,,0.00,meteohub,2013-09-23 16:06:00,
2013-09-23 12:11:00,54.9,44.1,29.44,North,0,0.0,0.0,67,0.00,,,0.00,meteohub,2013-09-23 16:11:00,
2013-09-23 12:16:00,55.2,44.4,29.44,North,0,0.0,0.0,67,0.00,,,0.00,meteohub,2013-09-23 16:16:00,
2013-09-23 12:21:00,55.8,45.0,29.44,North,0,0.0,0.0,67,0.00,,,0.00,meteohub,2013-09-23 16:21:00,
2013-09-23 12:26:00,55.9,44.8,29.44,North,0,0.0,0.0,66,0.00,,,0.00,meteohub,2013-09-23 16:26:00,
2013-09-23 12:31:00,56.3,45.1,29.44,North,0,0.0,0.0,66,0.00,,,0.00,meteohub,2013-09-23 16:31:00,
2013-09-23 12:36:00,57.2,45.5,29.44,North,0,0.0,0.0,65,0.00,,,0.00,meteohub,2013-09-23 16:36:00,
2013-09-23 12:41:00,57.6,45.5,29.44,North,0,0.0,0.0,64,0.00,,,0.00,meteohub,2013-09-23 16:41:00,
2013-09-23 12:46:00,57.6,45.9,29.44,North,0,0.0,0.0,65,0.00,,,0.00,meteohub,2013-09-23 16:46:00,
2013-09-23 12:51:00,58.3,46.2,29.44,North,0,0.0,0.0,64,0.00,,,0.00,meteohub,2013-09-23 16:51:00,
2013-09-23 12:56:00,58.3,45.7,29.44,North,0,0.0,0.0,63,0.00,,,0.00,meteohub,2013-09-23 16:56:00,
2013-09-23 13:01:00,58.3,45.7,29.44,North,0,0.0,0.0,63,0.00,,,0.00,meteohub,2013-09-23 17:01:00,
2013-09-23 13:06:00,59.0,46.4,29.43,North,0,0.0,0.0,63,0.00,,,0.00,meteohub,2013-09-23 17:06:00,
2013-09-23 13:11:00,59.0,45.5,29.43,North,0,0.0,0.0,61,0.00,,,0.00,meteohub,2013-09-23 17:11:00,
2013-09-23 13:16:00,59.0,45.1,29.43,North,0,0.0,0.0,60,0.00,,,0.00,meteohub,2013-09-23 17:16:00,
2013-09-23 13:21:00,59.2,45.3,29.43,North,0,0.0,0.0,60,0.00,,,0.00,meteohub,2013-09-23 17:21:00,
2013-09-23 13:26:00,59.5,45.7,29.42,North,0,0.0,0.0,60,0.00,,,0.00,meteohub,2013-09-23 17:26:00,
2013-09-23 13:31:00,60.3,45.9,29.42,North,0,0.0,0.0,59,0.00,,,0.00,meteohub,2013-09-23 17:31:00,
2013-09-23 13:36:00,59.9,45.5,29.42,North,0,0.0,0.0,59,0.00,,,0.00,meteohub,2013-09-23 17:36:00,
2013-09-23 13:41:00,59.9,46.4,29.42,North,0,0.0,0.0,61,0.00,,,0.00,meteohub,2013-09-23 17:41:00,
2013-09-23 13:46:00,61.0,47.5,29.42,North,0,0.0,0.0,61,0.00,,,0.00,meteohub,2013-09-23 17:46:00,
2013-09-23 13:51:00,61.2,47.1,29.42,North,0,0.0,0.0,60,0.00,,,0.00,meteohub,2013-09-23 17:51:00,
2013-09-23 13:56:00,61.3,46.4,29.42,North,0,0.0,0.0,58,0.00,,,0.00,meteohub,2013-09-23 17:56:00,
2013-09-23 14:02:00,61.2,46.2,29.42,North,0,0.0,0.0,58,0.00,,,0.00,meteohub,2013-09-23 18:02:00,
2013-09-23 14:06:00,61.2,46.2,29.42,North,0,0.0,0.0,58,0.00,,,0.00,meteohub,2013-09-23 18:06:00,
2013-09-23 14:12:00,61.3,46.4,29.42,North,0,0.0,0.0,58,0.00,,,0.00,meteohub,2013-09-23 18:12:00,
2013-09-23 14:17:00,61.0,45.1,29.42,North,0,0.0,0.0,56,0.00,,,0.00,meteohub,2013-09-23 18:17:00,
2013-09-23 14:22:00,61.0,46.6,29.42,North,0,0.0,0.0,59,0.00,,,0.00,meteohub,2013-09-23 18:22:00,
2013-09-23 14:27:00,61.3,46.9,29.41,North,0,0.0,0.0,59,0.00,,,0.00,meteohub,2013-09-23 18:27:00,
2013-09-23 14:32:00,61.5,46.2,29.41,North,0,0.0,0.0,57,0.00,,,0.00,meteohub,2013-09-23 18:32:00,
2013-09-23 14:37:00,61.3,45.5,29.41,North,0,0.0,0.0,56,0.00,,,0.00,meteohub,2013-09-23 18:37:00,
2013-09-23 14:42:00,61.0,45.1,29.41,North,0,0.0,0.0,56,0.00,,,0.00,meteohub,2013-09-23 18:42:00,
2013-09-23 14:47:00,61.0,46.0,29.41,North,0,0.0,0.0,58,0.00,,,0.00,meteohub,2013-09-23 18:47:00,
2013-09-23 14:52:00,61.7,46.8,29.41,North,0,0.0,0.0,58,0.00,,,0.00,meteohub,2013-09-23 18:52:00,
2013-09-23 14:57:00,61.9,47.5,29.41,North,0,0.0,0.0,59,0.00,,,0.00,meteohub,2013-09-23 18:57:00,
2013-09-23 15:02:00,61.9,46.4,29.41,North,0,0.0,0.0,57,0.00,,,0.00,meteohub,2013-09-23 19:02:00,
2013-09-23 15:07:00,61.7,46.8,29.40,North,0,0.0,0.0,58,0.00,,,0.00,meteohub,2013-09-23 19:07:00,
2013-09-23 15:12:00,61.3,45.5,29.40,North,0,0.0,0.0,56,0.00,,,0.00,meteohub,2013-09-23 19:12:00,
2013-09-23 15:17:00,61.0,45.1,29.40,North,0,0.0,0.0,56,0.00,,,0.00,meteohub,2013-09-23 19:17:00,
2013-09-23 15:22:00,61.0,45.7,29.40,North,0,0.0,0.0,57,0.00,,,0.00,meteohub,2013-09-23 19:22:00,
2013-09-23 15:27:00,61.0,46.0,29.40,North,0,0.0,0.0,58,0.00,,,0.00,meteohub,2013-09-23 19:27:00,
2013-09-23 15:32:00,61.0,45.1,29.40,North,0,0.0,0.0,56,0.00,,,0.00,meteohub,2013-09-23 19:32:00,
2013-09-23 15:37:00,61.0,45.1,29.40,North,0,0.0,0.0,56,0.00,,,0.00,meteohub,2013-09-23 19:37:00,
2013-09-23 15:42:00,61.2,45.3,29.40,North,0,0.0,0.0,56,0.00,,,0.00,meteohub,2013-09-23 19:42:00,
2013-09-23 15:47:00,61.2,44.8,29.37,North,0,0.0,0.0,55,0.00,,,0.00,meteohub,2013-09-23 19:47:00,
2013-09-23 15:52:00,61.3,46.0,29.37,North,0,0.0,0.0,57,0.00,,,0.00,meteohub,2013-09-23 19:52:00,
2013-09-23 15:57:00,61.5,46.2,29.37,North,0,0.0,0.0,57,0.00,,,0.00,meteohub,2013-09-23 19:57:00,
2013-09-23 16:02:00,61.7,45.9,29.37,North,0,0.0,0.0,56,0.00,,,0.00,meteohub,2013-09-23 20:02:00,
2013-09-23 16:07:00,62.1,46.2,29.37,North,0,0.0,0.0,56,0.00,,,0.00,meteohub,2013-09-23 20:07:00,
2013-09-23 16:12:00,62.2,46.4,29.37,North,0,0.0,0.0,56,0.00,,,0.00,meteohub,2013-09-23 20:12:00,
2013-09-23 16:17:00,62.2,46.4,29.37,North,0,0.0,0.0,56,0.00,,,0.00,meteohub,2013-09-23 20:17:00,
2013-09-23 16:22:00,62.2,46.4,29.37,North,0,0.0,0.0,56,0.00,,,0.00,meteohub,2013-09-23 20:22:00,
2013-09-23 16:27:00,62.4,46.6,29.36,North,0,0.0,0.0,56,0.00,,,0.00,meteohub,2013-09-23 20:27:00,
2013-09-23 16:32:00,62.8,47.3,29.36,North,0,0.0,0.0,57,0.00,,,0.00,meteohub,2013-09-23 20:32:00,
2013-09-23 16:37:00,63.5,47.1,29.36,North,0,0.0,0.0,55,0.00,,,0.00,meteohub,2013-09-23 20:37:00,
2013-09-23 16:42:00,63.7,46.8,29.36,North,0,0.0,0.0,54,0.00,,,0.00,meteohub,2013-09-23 20:42:00,
2013-09-23 16:47:00,63.9,46.4,29.36,North,0,0.0,0.0,53,0.00,,,0.00,meteohub,2013-09-23 20:47:00,
2013-09-23 16:52:00,64.4,46.9,29.36,North,0,0.0,0.0,53,0.00,,,0.00,meteohub,2013-09-23 20:52:00,
2013-09-23 16:58:00,65.1,48.6,29.36,North,0,0.0,0.0,55,0.00,,,0.00,meteohub,2013-09-23 20:58:00,
2013-09-23 17:03:00,65.3,47.3,29.36,North,0,0.0,0.0,52,0.00,,,0.00,meteohub,2013-09-23 21:03:00,
2013-09-23 17:08:00,65.7,47.5,29.36,North,0,0.0,0.0,52,0.00,,,0.00,meteohub,2013-09-23 21:08:00,
2013-09-23 17:13:00,65.8,48.2,29.36,North,0,0.0,0.0,53,0.00,,,0.00,meteohub,2013-09-23 21:13:00,
2013-09-23 17:18:00,65.8,48.2,29.36,North,0,0.0,0.0,53,0.00,,,0.00,meteohub,2013-09-23 21:18:00,
2013-09-23 17:23:00,66.0,47.8,29.35,North,0,0.0,0.0,52,0.00,,,0.00,meteohub,2013-09-23 21:23:00,
2013-09-23 17:28:00,65.3,48.2,29.35,North,0,0.0,0.0,54,0.00,,,0.00,meteohub,2013-09-23 21:28:00,
2013-09-23 17:33:00,64.6,48.6,29.35,North,0,0.0,0.0,56,0.00,,,0.00,meteohub,2013-09-23 21:33:00,
2013-09-23 17:38:00,63.7,48.2,29.35,North,0,0.0,0.0,57,0.00,,,0.00,meteohub,2013-09-23 21:38:00,
2013-09-23 17:43:00,63.1,48.2,29.38,North,0,0.0,0.0,58,0.00,,,0.00,meteohub,2013-09-23 21:43:00,
2013-09-23 17:48:00,62.4,47.8,29.38,North,0,0.0,0.0,59,0.00,,,0.00,meteohub,2013-09-23 21:48:00,
2013-09-23 17:53:00,61.9,48.2,29.38,North,0,0.0,0.0,61,0.00,,,0.00,meteohub,2013-09-23 21:53:00,
2013-09-23 17:58:00,61.3,48.2,29.38,North,0,0.0,0.0,62,0.00,,,0.00,meteohub,2013-09-23 21:58:00,
2013-09-23 18:03:00,61.0,47.8,29.39,North,0,0.0,0.0,62,0.00,,,0.00,meteohub,2013-09-23 22:03:00,
2013-09-23 18:08:00,60.6,48.0,29.39,North,0,0.0,0.0,63,0.00,,,0.00,meteohub,2013-09-23 22:08:00,
2013-09-23 18:13:00,60.6,48.0,29.39,North,0,0.0,0.0,63,0.00,,,0.00,meteohub,2013-09-23 22:13:00,
2013-09-23 18:18:00,60.1,47.5,29.39,North,0,0.0,0.0,63,0.00,,,0.00,meteohub,2013-09-23 22:18:00,
2013-09-23 18:23:00,59.9,47.7,29.39,North,0,0.0,0.0,64,0.00,,,0.00,meteohub,2013-09-23 22:23:00,
2013-09-23 18:28:00,59.0,47.3,29.39,North,0,0.0,0.0,65,0.00,,,0.00,meteohub,2013-09-23 22:28:00,
2013-09-23 18:33:00,58.3,46.6,29.39,North,0,0.0,0.0,65,0.00,,,0.00,meteohub,2013-09-23 22:33:00,
2013-09-23 18:38:00,57.6,46.2,29.39,North,0,0.0,0.0,66,0.00,,,0.00,meteohub,2013-09-23 22:38:00,
2013-09-23 18:43:00,57.0,46.2,29.39,North,0,0.0,0.0,67,0.00,,,0.00,meteohub,2013-09-23 22:43:00,
2013-09-23 18:48:00,56.8,46.0,29.39,North,0,0.0,0.0,67,0.00,,,0.00,meteohub,2013-09-23 22:48:00,
2013-09-23 18:53:00,56.3,46.2,29.39,North,0,0.0,0.0,69,0.00,,,0.00,meteohub,2013-09-23 22:53:00,
2013-09-23 18:58:00,55.9,46.2,29.39,North,0,0.0,0.0,70,0.00,,,0.00,meteohub,2013-09-23 22:58:00,
2013-09-23 19:03:00,55.6,46.0,29.39,North,0,0.0,0.0,70,0.00,,,0.00,meteohub,2013-09-23 23:03:00,
2013-09-23 19:08:00,55.4,45.9,29.39,North,0,0.0,0.0,70,0.00,,,0.00,meteohub,2013-09-23 23:08:00,
2013-09-23 19:13:00,55.2,46.0,29.39,North,0,0.0,0.0,71,0.00,,,0.00,meteohub,2013-09-23 23:13:00,
2013-09-23 19:18:00,55.0,45.9,29.39,North,0,0.0,0.0,71,0.00,,,0.00,meteohub,2013-09-23 23:18:00,
2013-09-23 19:23:00,54.5,45.3,29.39,North,0,0.0,0.0,71,0.00,,,0.00,meteohub,2013-09-23 23:23:00,
2013-09-23 19:28:00,54.3,45.5,29.39,North,0,0.0,0.0,72,0.00,,,0.00,meteohub,2013-09-23 23:28:00,
2013-09-23 19:33:00,53.8,45.0,29.39,North,0,0.0,0.0,72,0.00,,,0.00,meteohub,2013-09-23 23:33:00,
2013-09-23 19:38:00,53.4,44.6,29.39,North,0,0.0,0.0,72,0.00,,,0.00,meteohub,2013-09-23 23:38:00,
2013-09-23 19:43:00,52.9,44.4,29.38,North,0,0.0,0.0,73,0.00,,,0.00,meteohub,2013-09-23 23:43:00,
2013-09-23 19:48:00,52.3,44.2,29.38,North,0,0.0,0.0,74,0.00,,,0.00,meteohub,2013-09-23 23:48:00,
2013-09-23 19:53:00,51.4,43.7,29.38,North,0,0.0,0.0,75,0.00,,,0.00,meteohub,2013-09-23 23:53:00,
2013-09-23 19:58:00,51.3,43.5,29.38,North,0,0.0,0.0,75,0.00,,,0.00,meteohub,2013-09-23 23:58:00,
2013-09-23 20:03:00,50.9,43.3,29.37,North,0,0.0,0.0,75,0.00,,,0.00,meteohub,2013-09-24 00:03:00,
2013-09-23 20:08:00,50.7,43.2,29.37,North,0,0.0,0.0,75,0.00,,,0.00,meteohub,2013-09-24 00:08:00,
2013-09-23 20:13:00,50.5,43.0,29.37,North,0,0.0,0.0,75,0.00,,,0.00,meteohub,2013-09-24 00:13:00,
2013-09-23 20:18:00,50.2,42.6,29.37,North,0,0.0,0.0,75,0.00,,,0.00,meteohub,2013-09-24 00:18:00,
2013-09-23 20:23:00,50.0,42.4,29.37,North,0,0.0,0.0,75,0.00,,,0.00,meteohub,2013-09-24 00:23:00,
2013-09-23 20:28:00,49.6,42.1,29.37,North,0,0.0,0.0,75,0.00,,,0.00,meteohub,2013-09-24 00:28:00,
2013-09-23 20:34:00,49.5,41.9,29.37,North,0,0.0,0.0,75,0.00,,,0.00,meteohub,2013-09-24 00:34:00,
2013-09-23 20:39:00,49.1,41.5,29.37,North,0,0.0,0.0,75,0.00,,,0.00,meteohub,2013-09-24 00:39:00,
2013-09-23 20:44:00,48.7,41.2,29.38,North,0,0.0,0.0,75,0.00,,,0.00,meteohub,2013-09-24 00:44:00,
2013-09-23 20:49:00,48.6,40.6,29.38,North,0,0.0,0.0,74,0.00,,,0.00,meteohub,2013-09-24 00:49:00,
2013-09-23 20:54:00,48.4,40.1,29.38,North,0,0.0,0.0,73,0.00,,,0.00,meteohub,2013-09-24 00:54:00,
2013-09-23 20:59:00,48.4,40.1,29.38,North,0,0.0,0.0,73,0.00,,,0.00,meteohub,2013-09-24 00:59:00,
2013-09-23 21:04:00,48.2,39.9,29.37,North,0,0.0,0.0,73,0.00,,,0.00,meteohub,2013-09-24 01:04:00,
2013-09-23 21:09:00,48.0,39.7,29.37,North,0,0.0,0.0,73,0.00,,,0.00,meteohub,2013-09-24 01:09:00,
2013-09-23 21:14:00,47.8,39.6,29.37,North,0,0.0,0.0,73,0.00,,,0.00,meteohub,2013-09-24 01:14:00,
2013-09-23 21:19:00,47.7,39.0,29.37,North,0,0.0,0.0,72,0.00,,,0.00,meteohub,2013-09-24 01:19:00,
2013-09-23 21:24:00,47.7,39.0,29.37,North,0,0.0,0.0,72,0.00,,,0.00,meteohub,2013-09-24 01:24:00,
2013-09-23 21:29:00,47.5,38.8,29.37,North,0,0.0,0.0,72,0.00,,,0.00,meteohub,2013-09-24 01:29:00,
2013-09-23 21:34:00,47.3,38.3,29.37,North,0,0.0,0.0,71,0.00,,,0.00,meteohub,2013-09-24 01:34:00,
2013-09-23 21:39:00,47.3,38.3,29.37,North,0,0.0,0.0,71,0.00,,,0.00,meteohub,2013-09-24 01:39:00,
2013-09-23 21:44:00,47.1,38.1,29.38,North,0,0.0,0.0,71,0.00,,,0.00,meteohub,2013-09-24 01:44:00,
2013-09-23 21:49:00,47.1,37.8,29.38,North,0,0.0,0.0,70,0.00,,,0.00,meteohub,2013-09-24 01:49:00,
2013-09-23 21:54:00,46.9,37.6,29.38,North,0,0.0,0.0,70,0.00,,,0.00,meteohub,2013-09-24 01:54:00,
2013-09-23 21:59:00,46.8,37.6,29.38,North,0,0.0,0.0,70,0.00,,,0.00,meteohub,2013-09-24 01:59:00,
2013-09-23 22:04:00,46.6,37.4,29.38,North,0,0.0,0.0,70,0.00,,,0.00,meteohub,2013-09-24 02:04:00,
2013-09-23 22:10:00,46.4,37.2,29.38,North,0,0.0,0.0,70,0.00,,,0.00,meteohub,2013-09-24 02:10:00,
2013-09-23 22:15:00,46.2,37.0,29.38,North,0,0.0,0.0,70,0.00,,,0.00,meteohub,2013-09-24 02:15:00,
2013-09-23 22:20:00,46.0,36.5,29.38,North,0,0.0,0.0,69,0.00,,,0.00,meteohub,2013-09-24 02:20:00,
2013-09-23 22:25:00,45.9,36.3,29.38,North,0,0.0,0.0,69,0.00,,,0.00,meteohub,2013-09-24 02:25:00,
2013-09-23 22:30:00,45.9,36.3,29.38,North,0,0.0,0.0,69,0.00,,,0.00,meteohub,2013-09-24 02:30:00,
2013-09-23 22:35:00,45.7,35.4,29.38,North,0,0.0,0.0,67,0.00,,,0.00,meteohub,2013-09-24 02:35:00,
2013-09-23 22:40:00,45.7,35.4,29.38,North,0,0.0,0.0,67,0.00,,,0.00,meteohub,2013-09-24 02:40:00,
2013-09-23 22:45:00,45.7,35.1,29.39,North,0,0.0,0.0,66,0.00,,,0.00,meteohub,2013-09-24 02:45:00,
2013-09-23 22:50:00,45.9,34.3,29.39,North,0,0.0,0.0,64,0.00,,,0.00,meteohub,2013-09-24 02:50:00,
2013-09-23 22:55:00,45.5,34.0,29.39,North,0,0.0,0.0,64,0.00,,,0.00,meteohub,2013-09-24 02:55:00,
2013-09-23 23:00:00,45.1,34.2,29.39,North,0,0.0,0.0,65,0.00,,,0.00,meteohub,2013-09-24 03:00:00,
2013-09-23 23:05:00,45.0,34.0,29.39,North,0,0.0,0.0,65,0.00,,,0.00,meteohub,2013-09-24 03:05:00,
2013-09-23 23:10:00,44.8,33.8,29.39,North,0,0.0,0.0,65,0.00,,,0.00,meteohub,2013-09-24 03:10:00,
2013-09-23 23:15:00,44.6,33.6,29.39,North,0,0.0,0.0,65,0.00,,,0.00,meteohub,2013-09-24 03:15:00,
2013-09-23 23:20:00,44.6,33.3,29.39,North,0,0.0,0.0,64,0.00,,,0.00,meteohub,2013-09-24 03:20:00,
2013-09-23 23:25:00,44.4,33.1,29.39,North,0,0.0,0.0,64,0.00,,,0.00,meteohub,2013-09-24 03:25:00,
2013-09-23 23:30:00,44.4,33.1,29.39,North,0,0.0,0.0,64,0.00,,,0.00,meteohub,2013-09-24 03:30:00,
2013-09-23 23:35:00,44.6,32.7,29.39,North,0,0.0,0.0,63,0.00,,,0.00,meteohub,2013-09-24 03:35:00,
2013-09-23 23:40:00,44.8,32.9,29.39,North,0,0.0,0.0,63,0.00,,,0.00,meteohub,2013-09-24 03:40:00,
2013-09-23 23:45:00,45.0,32.7,29.38,North,0,0.0,0.0,62,0.00,,,0.00,meteohub,2013-09-24 03:45:00,
2013-09-23 23:51:00,45.0,32.7,29.38,North,0,0.0,0.0,62,0.00,,,0.00,meteohub,2013-09-24 03:51:00,
2013-09-23 23:56:00,45.0,32.4,29.38,North,0,0.0,0.0,61,0.00,,,0.00,meteohub,2013-09-24 03:56:00,